createdAt,value
2019-01-25T00:02:13.881Z,35.98
2019-01-25T00:04:39.832Z,36.11
2019-01-25T00:07:05.719Z,36.05
2019-01-25T00:09:31.930Z,35.92
2019-01-25T00:11:57.864Z,35.93
2019-01-25T00:14:23.765Z,36.00
2019-01-25T00:16:49.667Z,36.02
2019-01-25T00:19:15.993Z,35.96
2019-01-25T00:21:41.903Z,35.99
2019-01-25T00:24:07.827Z,36.06
2019-01-25T00:26:34.049Z,36.01
2019-01-25T00:29:00.096Z,35.99
2019-01-25T00:31:25.992Z,36.12
2019-01-25T00:33:51.894Z,36.10
2019-01-25T00:36:18.279Z,36.06
2019-01-25T00:38:44.616Z,36.11
2019-01-25T00:41:10.527Z,36.28
2019-01-25T00:43:36.426Z,36.11
2019-01-25T00:46:02.332Z,36.15
2019-01-25T00:48:28.231Z,36.12
2019-01-25T00:50:54.133Z,36.25
2019-01-25T00:53:20.034Z,36.23
2019-01-25T00:55:46.347Z,36.21
2019-01-25T00:58:12.613Z,36.41
2019-01-25T01:00:38.684Z,36.37
2019-01-25T01:03:04.627Z,36.37
2019-01-25T01:05:30.995Z,36.35
2019-01-25T01:07:59.804Z,36.24
2019-01-25T01:10:25.694Z,36.26
2019-01-25T01:12:51.912Z,36.20
2019-01-25T01:15:17.853Z,36.11
2019-01-25T01:17:44.059Z,36.15
2019-01-25T01:20:11.261Z,36.11
2019-01-25T01:22:37.202Z,36.06
2019-01-25T01:25:04.038Z,36.04
2019-01-25T01:27:29.928Z,36.01
2019-01-25T01:29:55.834Z,35.97
2019-01-25T01:32:21.891Z,35.92
2019-01-25T01:34:47.797Z,36.21
2019-01-25T01:37:13.700Z,35.94
2019-01-25T01:39:39.601Z,35.91
2019-01-25T01:42:05.555Z,35.97
2019-01-25T01:44:31.760Z,35.97
2019-01-25T01:46:57.666Z,35.95
2019-01-25T01:49:23.580Z,35.92
2019-01-25T01:51:49.521Z,35.94
2019-01-25T01:54:15.419Z,35.97
2019-01-25T01:56:41.417Z,35.89
2019-01-25T01:59:07.321Z,35.90
2019-01-25T02:01:33.270Z,35.86
2019-01-25T02:03:59.164Z,35.89
2019-01-25T02:06:25.058Z,36.05
2019-01-25T02:08:53.361Z,35.84
2019-01-25T02:11:19.260Z,35.89
2019-01-25T02:13:45.208Z,35.89
2019-01-25T02:16:11.100Z,35.87
2019-01-25T02:18:37.014Z,35.92
2019-01-25T02:21:02.921Z,35.84
2019-01-25T02:23:28.822Z,35.91
2019-01-25T02:25:54.723Z,35.84
2019-01-25T02:28:23.842Z,35.84
2019-01-25T02:30:49.756Z,35.75
2019-01-25T02:33:15.649Z,35.83
2019-01-25T02:35:41.559Z,35.77
2019-01-25T02:38:07.505Z,35.72
2019-01-25T02:40:39.157Z,35.83
2019-01-25T02:43:01.551Z,35.71
2019-01-25T02:45:27.436Z,35.65
2019-01-25T02:47:53.355Z,35.62
2019-01-25T02:50:19.244Z,35.69
2019-01-25T02:52:45.217Z,35.71
2019-01-25T02:55:11.521Z,35.84
2019-01-25T02:57:40.548Z,35.68
2019-01-25T03:00:19.567Z,35.61
2019-01-25T03:02:45.455Z,35.76
2019-01-25T03:05:11.601Z,35.57
2019-01-25T03:07:37.631Z,35.71
2019-01-25T03:10:13.836Z,35.65
2019-01-25T03:12:39.756Z,35.69
2019-01-25T03:15:07.537Z,35.58
2019-01-25T03:17:33.495Z,35.67
2019-01-25T03:20:02.601Z,35.63
2019-01-25T03:22:28.533Z,35.64
2019-01-25T03:24:54.432Z,35.79
2019-01-25T03:27:23.115Z,35.69
2019-01-25T03:29:52.241Z,35.82
2019-01-25T03:32:23.045Z,35.69
2019-01-25T03:34:51.921Z,35.74
2019-01-25T03:37:22.905Z,35.72
2019-01-25T03:39:49.731Z,35.78
2019-01-25T03:42:15.623Z,35.77
2019-01-25T03:44:41.651Z,35.79
2019-01-25T03:47:07.548Z,35.77
2019-01-25T03:49:36.210Z,35.77
2019-01-25T03:52:02.148Z,35.76
2019-01-25T03:54:31.052Z,35.76
2019-01-25T03:56:56.977Z,35.86
2019-01-25T03:59:22.874Z,35.79
2019-01-25T04:01:51.791Z,35.78
2019-01-25T04:04:22.589Z,35.81
2019-01-25T04:06:54.870Z,35.85
2019-01-25T04:09:23.525Z,35.86
2019-01-25T04:11:49.475Z,35.87
2019-01-25T04:14:18.392Z,35.92
2019-01-25T04:16:44.341Z,35.87
2019-01-25T04:19:13.260Z,35.90
2019-01-25T04:21:42.449Z,35.89
2019-01-25T04:24:11.441Z,35.95
2019-01-25T04:26:40.525Z,35.89
2019-01-25T04:29:09.458Z,35.85
2019-01-25T04:31:38.482Z,35.88
2019-01-25T04:34:04.384Z,35.94
2019-01-25T04:36:30.350Z,35.94
2019-01-25T04:38:56.360Z,35.94
2019-01-25T04:41:22.269Z,35.95
2019-01-25T04:43:48.216Z,35.91
2019-01-25T04:46:14.092Z,35.93
2019-01-25T04:48:39.995Z,35.97
2019-01-25T04:51:06.306Z,35.96
2019-01-25T04:53:33.593Z,35.95
2019-01-25T04:56:00.211Z,36.00
2019-01-25T04:58:26.181Z,35.90
2019-01-25T05:00:52.068Z,35.93
2019-01-25T05:03:18.018Z,35.92
2019-01-25T05:05:43.952Z,35.89
2019-01-25T05:08:11.774Z,35.94
2019-01-25T05:10:38.025Z,35.84
2019-01-25T05:13:06.999Z,35.85
2019-01-25T05:15:36.156Z,35.90
2019-01-25T05:18:05.229Z,36.15
2019-01-25T05:20:31.553Z,35.88
2019-01-25T05:23:01.106Z,35.83
2019-01-25T05:25:27.091Z,35.85
2019-01-25T05:27:52.985Z,35.89
2019-01-25T05:30:19.296Z,35.95
2019-01-25T05:32:45.533Z,35.97
2019-01-25T05:35:11.420Z,35.86
2019-01-25T05:37:37.368Z,35.86
2019-01-25T05:40:05.216Z,35.82
2019-01-25T05:42:31.112Z,35.87
2019-01-25T05:45:00.721Z,35.84
2019-01-25T05:47:26.714Z,35.78
2019-01-25T05:49:52.618Z,35.75
2019-01-25T05:52:23.351Z,35.81
2019-01-25T05:54:52.616Z,35.74
2019-01-25T05:57:23.387Z,35.71
2019-01-25T05:59:53.093Z,35.69
2019-01-25T06:02:21.763Z,35.73
2019-01-25T06:04:47.652Z,35.88
2019-01-25T06:07:16.591Z,35.85
2019-01-25T06:09:45.657Z,35.92
2019-01-25T06:12:14.604Z,36.26
2019-01-25T06:14:43.713Z,35.67
2019-01-25T06:17:12.945Z,35.67
2019-01-25T06:19:41.689Z,35.64
2019-01-25T06:22:10.607Z,35.67
2019-01-25T06:24:36.502Z,36.21
2019-01-25T06:27:02.407Z,35.71
2019-01-25T06:29:29.554Z,35.79
2019-01-25T06:31:55.493Z,35.79
2019-01-25T06:34:27.301Z,36.12
2019-01-25T06:36:56.281Z,35.88
2019-01-25T06:39:22.190Z,35.86
2019-01-25T06:41:48.125Z,35.89
2019-01-25T06:44:17.014Z,35.92
2019-01-25T06:46:42.919Z,36.14
2019-01-25T06:49:08.820Z,35.91
2019-01-25T06:51:34.727Z,35.88
2019-01-25T06:54:03.900Z,36.27
2019-01-25T06:56:32.594Z,36.06
2019-01-25T06:59:00.409Z,36.12
